sensor_id;sensor_type;location;lat;lon;timestamp;temperature;humidity
5960;DHT22;3006;50.956;7.002;2023-03-01T00:01:28;2.70;99.90
5960;DHT22;3006;50.956;7.002;2023-03-01T00:03:57;2.70;99.90
5960;DHT22;3006;50.956;7.002;2023-03-01T00:06:27;2.60;99.90
5960;DHT22;3006;50.956;7.002;2023-03-01T00:08:56;2.60;99.90
5960;DHT22;3006;50.956;7.002;2023-03-01T00:11:25;2.60;99.90
5960;DHT22;3006;50.956;7.002;2023-03-01T00:13:55;2.50;99.90
5960;DHT22;3006;50.956;7.002;2023-03-01T00:16:25;2.50;99.90
5960;DHT22;3006;50.956;7.002;2023-03-01T00:18:55;2.50;99.90
5960;DHT22;3006;50.956;7.002;2023-03-01T00:21:24;2.50;99.90
5960;DHT22;3006;50.956;7.002;2023-03-01T00:23:54;2.50;99.90
5960;DHT22;3006;50.956;7.002;2023-03-01T00:26:24;2.50;99.90
5960;DHT22;3006;50.956;7.002;2023-03-01T00:28:53;2.50;99.90
5960;DHT22;3006;50.956;7.002;2023-03-01T00:31:23;2.50;99.90
5960;DHT22;3006;50.956;7.002;2023-03-01T00:33:52;2.40;99.90
5960;DHT22;3006;50.956;7.002;2023-03-01T00:36:25;2.40;99.90
5960;DHT22;3006;50.956;7.002;2023-03-01T00:38:55;2.40;99.90
5960;DHT22;3006;50.956;7.002;2023-03-01T00:41:23;2.40;99.90
5960;DHT22;3006;50.956;7.002;2023-03-01T00:43:53;2.40;99.90
5960;DHT22;3006;50.956;7.002;2023-03-01T00:46:23;2.40;99.90
5960;DHT22;3006;50.956;7.002;2023-03-01T00:48:53;2.40;99.90
5960;DHT22;3006;50.956;7.002;2023-03-01T00:51:23;2.30;99.90
5960;DHT22;3006;50.956;7.002;2023-03-01T00:53:53;2.30;99.90
5960;DHT22;3006;50.956;7.002;2023-03-01T00:56:23;2.30;99.90
5960;DHT22;3006;50.956;7.002;2023-03-01T00:58:52;2.30;99.90
5960;DHT22;3006;50.956;7.002;2023-03-01T01:01:21;2.30;99.90
5960;DHT22;3006;50.956;7.002;2023-03-01T01:03:52;2.30;99.90
5960;DHT22;3006;50.956;7.002;2023-03-01T01:06:22;2.30;99.90
5960;DHT22;3006;50.956;7.002;2023-03-01T01:08:52;2.30;99.90
5960;DHT22;3006;50.956;7.002;2023-03-01T01:11:21;2.30;99.90
5960;DHT22;3006;50.956;7.002;2023-03-01T01:13:51;2.30;99.90
5960;DHT22;3006;50.956;7.002;2023-03-01T01:16:21;2.30;99.90
5960;DHT22;3006;50.956;7.002;2023-03-01T01:18:49;2.30;99.90
5960;DHT22;3006;50.956;7.002;2023-03-01T01:21:19;2.30;99.90
5960;DHT22;3006;50.956;7.002;2023-03-01T01:23:47;2.20;99.90
5960;DHT22;3006;50.956;7.002;2023-03-01T01:26:17;2.30;99.90
5960;DHT22;3006;50.956;7.002;2023-03-01T01:28:46;2.20;99.90
5960;DHT22;3006;50.956;7.002;2023-03-01T01:31:16;2.20;99.90
5960;DHT22;3006;50.956;7.002;2023-03-01T01:33:45;2.20;99.90
5960;DHT22;3006;50.956;7.002;2023-03-01T01:36:14;2.10;99.90
5960;DHT22;3006;50.956;7.002;2023-03-01T01:38:42;2.10;99.90
5960;DHT22;3006;50.956;7.002;2023-03-01T01:41:11;2.20;99.90
5960;DHT22;3006;50.956;7.002;2023-03-01T01:43:40;2.20;99.90
5960;DHT22;3006;50.956;7.002;2023-03-01T01:46:18;2.10;99.90
5960;DHT22;3006;50.956;7.002;2023-03-01T01:48:53;2.20;99.90
5960;DHT22;3006;50.956;7.002;2023-03-01T01:51:25;2.20;99.90
5960;DHT22;3006;50.956;7.002;2023-03-01T01:53:59;2.10;99.90
5960;DHT22;3006;50.956;7.002;2023-03-01T01:56:29;2.20;99.90
5960;DHT22;3006;50.956;7.002;2023-03-01T01:58:58;2.20;99.90
5960;DHT22;3006;50.956;7.002;2023-03-01T02:01:28;2.10;99.90
5960;DHT22;3006;50.956;7.002;2023-03-01T02:03:56;2.00;99.90
5960;DHT22;3006;50.956;7.002;2023-03-01T02:06:28;2.10;99.90
5960;DHT22;3006;50.956;7.002;2023-03-01T02:09:01;2.00;99.90
5960;DHT22;3006;50.956;7.002;2023-03-01T02:11:31;2.00;99.90
5960;DHT22;3006;50.956;7.002;2023-03-01T02:14:00;1.90;99.90
5960;DHT22;3006;50.956;7.002;2023-03-01T02:16:29;1.90;99.90
5960;DHT22;3006;50.956;7.002;2023-03-01T02:18:59;1.90;99.90
5960;DHT22;3006;50.956;7.002;2023-03-01T02:21:36;1.80;99.90
5960;DHT22;3006;50.956;7.002;2023-03-01T02:24:14;1.90;99.90
5960;DHT22;3006;50.956;7.002;2023-03-01T02:26:51;1.80;99.90
5960;DHT22;3006;50.956;7.002;2023-03-01T02:29:21;1.80;99.90
5960;DHT22;3006;50.956;7.002;2023-03-01T02:31:49;1.80;99.90
5960;DHT22;3006;50.956;7.002;2023-03-01T02:34:22;1.70;99.90
5960;DHT22;3006;50.956;7.002;2023-03-01T02:36:55;1.70;99.90
5960;DHT22;3006;50.956;7.002;2023-03-01T02:39:28;1.70;99.90
5960;DHT22;3006;50.956;7.002;2023-03-01T02:41:59;1.70;99.90
5960;DHT22;3006;50.956;7.002;2023-03-01T02:44:30;1.70;99.90
5960;DHT22;3006;50.956;7.002;2023-03-01T02:47:01;1.70;99.90
5960;DHT22;3006;50.956;7.002;2023-03-01T02:49:31;1.70;99.90
5960;DHT22;3006;50.956;7.002;2023-03-01T02:52:28;1.60;99.90
5960;DHT22;3006;50.956;7.002;2023-03-01T02:55:01;1.60;99.90
5960;DHT22;3006;50.956;7.002;2023-03-01T02:57:32;1.70;99.90
5960;DHT22;3006;50.956;7.002;2023-03-01T03:00:05;1.60;99.90
5960;DHT22;3006;50.956;7.002;2023-03-01T03:02:36;1.50;99.90
5960;DHT22;3006;50.956;7.002;2023-03-01T03:05:11;1.50;99.90
5960;DHT22;3006;50.956;7.002;2023-03-01T03:07:41;1.50;99.90
5960;DHT22;3006;50.956;7.002;2023-03-01T03:10:12;1.50;99.90
5960;DHT22;3006;50.956;7.002;2023-03-01T03:12:42;1.50;99.90
5960;DHT22;3006;50.956;7.002;2023-03-01T03:15:11;1.50;99.90
5960;DHT22;3006;50.956;7.002;2023-03-01T03:17:41;1.50;99.90
5960;DHT22;3006;50.956;7.002;2023-03-01T03:20:16;1.50;99.90
5960;DHT22;3006;50.956;7.002;2023-03-01T03:22:47;1.40;99.90
5960;DHT22;3006;50.956;7.002;2023-03-01T03:25:16;1.50;99.90
5960;DHT22;3006;50.956;7.002;2023-03-01T03:27:47;1.40;99.90
5960;DHT22;3006;50.956;7.002;2023-03-01T03:30:18;1.50;99.90
5960;DHT22;3006;50.956;7.002;2023-03-01T03:32:48;1.40;99.90
5960;DHT22;3006;50.956;7.002;2023-03-01T03:35:20;1.40;99.90
5960;DHT22;3006;50.956;7.002;2023-03-01T03:37:49;1.40;99.90
5960;DHT22;3006;50.956;7.002;2023-03-01T03:40:34;1.40;99.90
5960;DHT22;3006;50.956;7.002;2023-03-01T03:43:03;1.30;99.90
5960;DHT22;3006;50.956;7.002;2023-03-01T03:45:33;1.20;99.90
5960;DHT22;3006;50.956;7.002;2023-03-01T03:48:03;1.20;99.90
5960;DHT22;3006;50.956;7.002;2023-03-01T03:50:32;1.10;99.90
5960;DHT22;3006;50.956;7.002;2023-03-01T03:53:01;1.10;99.90
5960;DHT22;3006;50.956;7.002;2023-03-01T03:55:30;1.20;99.90
5960;DHT22;3006;50.956;7.002;2023-03-01T03:58:02;1.20;99.90
5960;DHT22;3006;50.956;7.002;2023-03-01T04:00:36;1.30;99.90
5960;DHT22;3006;50.956;7.002;2023-03-01T04:03:04;1.30;99.90
5960;DHT22;3006;50.956;7.002;2023-03-01T04:05:33;1.20;99.90
5960;DHT22;3006;50.956;7.002;2023-03-01T04:08:01;1.20;99.90
5960;DHT22;3006;50.956;7.002;2023-03-01T04:10:31;1.20;99.90
5960;DHT22;3006;50.956;7.002;2023-03-01T04:12:59;1.20;99.90
5960;DHT22;3006;50.956;7.002;2023-03-01T04:15:27;1.30;99.90
5960;DHT22;3006;50.956;7.002;2023-03-01T04:17:57;1.30;99.90
5960;DHT22;3006;50.956;7.002;2023-03-01T04:20:27;1.30;99.90
5960;DHT22;3006;50.956;7.002;2023-03-01T04:23:00;1.30;99.90
5960;DHT22;3006;50.956;7.002;2023-03-01T04:25:38;1.30;99.90
5960;DHT22;3006;50.956;7.002;2023-03-01T04:28:06;1.30;99.90
5960;DHT22;3006;50.956;7.002;2023-03-01T04:30:35;1.30;99.90
5960;DHT22;3006;50.956;7.002;2023-03-01T04:33:06;1.20;99.90
5960;DHT22;3006;50.956;7.002;2023-03-01T04:35:35;1.10;99.90
5960;DHT22;3006;50.956;7.002;2023-03-01T04:38:05;1.10;99.90
5960;DHT22;3006;50.956;7.002;2023-03-01T04:40:33;1.10;99.90
5960;DHT22;3006;50.956;7.002;2023-03-01T04:43:02;1.10;99.90
5960;DHT22;3006;50.956;7.002;2023-03-01T04:45:32;1.10;99.90
5960;DHT22;3006;50.956;7.002;2023-03-01T04:48:03;1.10;99.90
5960;DHT22;3006;50.956;7.002;2023-03-01T04:50:32;1.20;99.90
5960;DHT22;3006;50.956;7.002;2023-03-01T04:53:01;1.10;99.90
5960;DHT22;3006;50.956;7.002;2023-03-01T04:55:29;1.10;99.90
5960;DHT22;3006;50.956;7.002;2023-03-01T04:57:58;1.10;99.90
5960;DHT22;3006;50.956;7.002;2023-03-01T05:00:26;1.10;99.90
5960;DHT22;3006;50.956;7.002;2023-03-01T05:02:56;1.20;99.90
5960;DHT22;3006;50.956;7.002;2023-03-01T05:05:27;1.20;99.90
5960;DHT22;3006;50.956;7.002;2023-03-01T05:07:58;1.30;99.90
5960;DHT22;3006;50.956;7.002;2023-03-01T05:10:28;1.30;99.90
5960;DHT22;3006;50.956;7.002;2023-03-01T05:13:00;1.30;99.90
5960;DHT22;3006;50.956;7.002;2023-03-01T05:15:30;1.30;99.90
5960;DHT22;3006;50.956;7.002;2023-03-01T05:17:59;1.30;99.90
5960;DHT22;3006;50.956;7.002;2023-03-01T05:20:28;1.30;99.90
5960;DHT22;3006;50.956;7.002;2023-03-01T05:22:59;1.20;99.90
5960;DHT22;3006;50.956;7.002;2023-03-01T05:25:35;1.20;99.90
5960;DHT22;3006;50.956;7.002;2023-03-01T05:28:10;1.20;99.90
5960;DHT22;3006;50.956;7.002;2023-03-01T05:30:39;1.10;99.90
5960;DHT22;3006;50.956;7.002;2023-03-01T05:33:08;1.10;99.90
5960;DHT22;3006;50.956;7.002;2023-03-01T05:35:40;1.10;99.90
5960;DHT22;3006;50.956;7.002;2023-03-01T05:38:11;1.00;99.90
5960;DHT22;3006;50.956;7.002;2023-03-01T05:40:40;1.00;99.90
5960;DHT22;3006;50.956;7.002;2023-03-01T05:43:09;0.80;99.90
5960;DHT22;3006;50.956;7.002;2023-03-01T05:45:38;0.90;99.90
5960;DHT22;3006;50.956;7.002;2023-03-01T05:48:08;0.90;99.90
5960;DHT22;3006;50.956;7.002;2023-03-01T05:50:39;1.00;99.90
5960;DHT22;3006;50.956;7.002;2023-03-01T05:53:11;0.90;99.90
5960;DHT22;3006;50.956;7.002;2023-03-01T05:55:40;0.90;99.90
5960;DHT22;3006;50.956;7.002;2023-03-01T05:58:11;0.90;99.90
5960;DHT22;3006;50.956;7.002;2023-03-01T06:00:41;0.90;99.90
5960;DHT22;3006;50.956;7.002;2023-03-01T06:03:11;0.90;99.90
5960;DHT22;3006;50.956;7.002;2023-03-01T06:05:41;0.90;99.90
5960;DHT22;3006;50.956;7.002;2023-03-01T06:08:12;1.10;99.90
5960;DHT22;3006;50.956;7.002;2023-03-01T06:10:40;1.00;99.90
5960;DHT22;3006;50.956;7.002;2023-03-01T06:13:09;1.00;99.90
5960;DHT22;3006;50.956;7.002;2023-03-01T06:15:37;1.00;99.90
5960;DHT22;3006;50.956;7.002;2023-03-01T06:18:05;0.90;99.90
5960;DHT22;3006;50.956;7.002;2023-03-01T06:20:33;0.90;99.90
5960;DHT22;3006;50.956;7.002;2023-03-01T06:23:02;0.80;99.90
5960;DHT22;3006;50.956;7.002;2023-03-01T06:25:32;0.80;99.90
5960;DHT22;3006;50.956;7.002;2023-03-01T06:28:00;0.80;99.90
5960;DHT22;3006;50.956;7.002;2023-03-01T06:30:28;0.80;99.90
5960;DHT22;3006;50.956;7.002;2023-03-01T06:32:56;0.70;99.90
5960;DHT22;3006;50.956;7.002;2023-03-01T06:35:27;0.80;99.90
5960;DHT22;3006;50.956;7.002;2023-03-01T06:37:58;0.80;99.90
5960;DHT22;3006;50.956;7.002;2023-03-01T06:40:27;0.70;99.90
5960;DHT22;3006;50.956;7.002;2023-03-01T06:42:57;0.70;99.90
5960;DHT22;3006;50.956;7.002;2023-03-01T06:45:26;0.80;99.90
5960;DHT22;3006;50.956;7.002;2023-03-01T06:48:01;0.80;99.90
5960;DHT22;3006;50.956;7.002;2023-03-01T06:50:30;0.90;99.90
5960;DHT22;3006;50.956;7.002;2023-03-01T06:52:58;1.00;99.90
5960;DHT22;3006;50.956;7.002;2023-03-01T06:55:27;1.00;99.90
5960;DHT22;3006;50.956;7.002;2023-03-01T06:57:57;1.00;99.90
5960;DHT22;3006;50.956;7.002;2023-03-01T07:00:26;1.00;99.90
5960;DHT22;3006;50.956;7.002;2023-03-01T07:02:55;1.00;99.90
5960;DHT22;3006;50.956;7.002;2023-03-01T07:05:25;1.10;99.90
5960;DHT22;3006;50.956;7.002;2023-03-01T07:07:53;1.10;99.90
5960;DHT22;3006;50.956;7.002;2023-03-01T07:10:23;1.10;99.90
5960;DHT22;3006;50.956;7.002;2023-03-01T07:12:54;1.20;99.90
5960;DHT22;3006;50.956;7.002;2023-03-01T07:15:24;1.20;99.90
5960;DHT22;3006;50.956;7.002;2023-03-01T07:17:53;1.20;99.90
5960;DHT22;3006;50.956;7.002;2023-03-01T07:20:21;1.30;99.90
5960;DHT22;3006;50.956;7.002;2023-03-01T07:22:51;1.30;99.90
5960;DHT22;3006;50.956;7.002;2023-03-01T07:25:20;1.30;99.90
5960;DHT22;3006;50.956;7.002;2023-03-01T07:27:50;1.40;99.90
5960;DHT22;3006;50.956;7.002;2023-03-01T07:30:19;1.50;99.90
5960;DHT22;3006;50.956;7.002;2023-03-01T07:32:48;1.50;99.90
5960;DHT22;3006;50.956;7.002;2023-03-01T07:35:17;1.70;99.90
5960;DHT22;3006;50.956;7.002;2023-03-01T07:37:45;2.00;99.90
5960;DHT22;3006;50.956;7.002;2023-03-01T07:40:13;2.30;99.90
5960;DHT22;3006;50.956;7.002;2023-03-01T07:42:41;2.70;99.90
5960;DHT22;3006;50.956;7.002;2023-03-01T07:45:10;2.80;99.90
5960;DHT22;3006;50.956;7.002;2023-03-01T07:47:40;3.10;99.90
5960;DHT22;3006;50.956;7.002;2023-03-01T07:50:10;3.10;99.90
5960;DHT22;3006;50.956;7.002;2023-03-01T07:52:40;3.30;99.90
5960;DHT22;3006;50.956;7.002;2023-03-01T07:55:08;3.50;99.90
5960;DHT22;3006;50.956;7.002;2023-03-01T07:57:37;3.70;99.90
5960;DHT22;3006;50.956;7.002;2023-03-01T08:00:06;3.40;99.90
5960;DHT22;3006;50.956;7.002;2023-03-01T08:02:43;3.10;99.90
5960;DHT22;3006;50.956;7.002;2023-03-01T08:05:13;2.90;99.90
5960;DHT22;3006;50.956;7.002;2023-03-01T08:07:41;2.80;99.90
5960;DHT22;3006;50.956;7.002;2023-03-01T08:10:10;2.70;99.90
5960;DHT22;3006;50.956;7.002;2023-03-01T08:12:39;2.70;99.90
5960;DHT22;3006;50.956;7.002;2023-03-01T08:15:08;2.70;99.90
5960;DHT22;3006;50.956;7.002;2023-03-01T08:17:36;2.70;99.90
5960;DHT22;3006;50.956;7.002;2023-03-01T08:20:05;2.80;99.90
5960;DHT22;3006;50.956;7.002;2023-03-01T08:22:35;2.90;99.90
5960;DHT22;3006;50.956;7.002;2023-03-01T08:25:03;2.90;99.90
5960;DHT22;3006;50.956;7.002;2023-03-01T08:27:32;2.90;99.90
5960;DHT22;3006;50.956;7.002;2023-03-01T08:30:00;2.90;99.90
5960;DHT22;3006;50.956;7.002;2023-03-01T08:32:28;3.00;99.90
5960;DHT22;3006;50.956;7.002;2023-03-01T08:34:56;3.00;99.90
5960;DHT22;3006;50.956;7.002;2023-03-01T08:37:25;3.10;99.90
5960;DHT22;3006;50.956;7.002;2023-03-01T08:39:54;3.20;99.90
5960;DHT22;3006;50.956;7.002;2023-03-01T08:42:23;3.30;99.90
5960;DHT22;3006;50.956;7.002;2023-03-01T08:44:51;3.30;99.90
5960;DHT22;3006;50.956;7.002;2023-03-01T08:47:19;3.50;99.90
5960;DHT22;3006;50.956;7.002;2023-03-01T08:49:48;3.40;99.90
5960;DHT22;3006;50.956;7.002;2023-03-01T08:52:17;3.50;99.90
5960;DHT22;3006;50.956;7.002;2023-03-01T08:54:46;3.60;99.90
5960;DHT22;3006;50.956;7.002;2023-03-01T08:57:16;3.60;99.90
5960;DHT22;3006;50.956;7.002;2023-03-01T08:59:44;3.60;99.90
5960;DHT22;3006;50.956;7.002;2023-03-01T09:02:14;3.60;99.90
5960;DHT22;3006;50.956;7.002;2023-03-01T09:04:43;3.70;99.90
5960;DHT22;3006;50.956;7.002;2023-03-01T09:07:11;3.70;99.90
5960;DHT22;3006;50.956;7.002;2023-03-01T09:09:39;3.80;99.90
5960;DHT22;3006;50.956;7.002;2023-03-01T09:12:07;3.80;99.90
5960;DHT22;3006;50.956;7.002;2023-03-01T09:14:37;3.80;99.90
5960;DHT22;3006;50.956;7.002;2023-03-01T09:17:05;3.80;99.90
5960;DHT22;3006;50.956;7.002;2023-03-01T09:19:34;3.90;99.90
5960;DHT22;3006;50.956;7.002;2023-03-01T09:22:03;3.90;99.90
5960;DHT22;3006;50.956;7.002;2023-03-01T09:24:31;4.00;99.90
5960;DHT22;3006;50.956;7.002;2023-03-01T09:26:59;4.00;99.90
5960;DHT22;3006;50.956;7.002;2023-03-01T09:29:28;4.10;99.90
5960;DHT22;3006;50.956;7.002;2023-03-01T09:31:57;4.20;99.90
5960;DHT22;3006;50.956;7.002;2023-03-01T09:34:26;4.20;99.90
5960;DHT22;3006;50.956;7.002;2023-03-01T09:36:54;4.20;99.90
5960;DHT22;3006;50.956;7.002;2023-03-01T09:39:22;4.40;99.90
5960;DHT22;3006;50.956;7.002;2023-03-01T09:41:57;4.40;99.90
5960;DHT22;3006;50.956;7.002;2023-03-01T09:44:32;4.40;99.90
5960;DHT22;3006;50.956;7.002;2023-03-01T09:47:05;4.50;99.90
5960;DHT22;3006;50.956;7.002;2023-03-01T09:49:40;4.60;99.90
5960;DHT22;3006;50.956;7.002;2023-03-01T09:52:19;4.60;99.90
5960;DHT22;3006;50.956;7.002;2023-03-01T09:54:53;4.60;99.90
5960;DHT22;3006;50.956;7.002;2023-03-01T09:57:29;4.70;99.90
5960;DHT22;3006;50.956;7.002;2023-03-01T10:00:13;4.70;99.90
5960;DHT22;3006;50.956;7.002;2023-03-01T10:02:48;4.80;99.90
5960;DHT22;3006;50.956;7.002;2023-03-01T10:05:39;4.80;99.90
5960;DHT22;3006;50.956;7.002;2023-03-01T10:08:28;4.80;99.90
5960;DHT22;3006;50.956;7.002;2023-03-01T10:11:00;4.80;99.90
5960;DHT22;3006;50.956;7.002;2023-03-01T10:13:45;4.90;99.90
5960;DHT22;3006;50.956;7.002;2023-03-01T10:16:18;4.90;99.90
5960;DHT22;3006;50.956;7.002;2023-03-01T10:18:53;5.00;99.90
5960;DHT22;3006;50.956;7.002;2023-03-01T10:21:23;5.00;99.90
5960;DHT22;3006;50.956;7.002;2023-03-01T10:23:52;5.00;99.90
5960;DHT22;3006;50.956;7.002;2023-03-01T10:26:33;5.00;99.90
5960;DHT22;3006;50.956;7.002;2023-03-01T10:29:05;5.00;99.90
5960;DHT22;3006;50.956;7.002;2023-03-01T10:31:40;5.10;99.90
5960;DHT22;3006;50.956;7.002;2023-03-01T10:34:14;5.10;99.90
5960;DHT22;3006;50.956;7.002;2023-03-01T10:36:51;5.20;99.90
5960;DHT22;3006;50.956;7.002;2023-03-01T10:39:22;5.30;99.90
5960;DHT22;3006;50.956;7.002;2023-03-01T10:41:56;5.30;99.90
5960;DHT22;3006;50.956;7.002;2023-03-01T10:44:39;5.40;99.80
5960;DHT22;3006;50.956;7.002;2023-03-01T10:47:14;5.40;99.90
5960;DHT22;3006;50.956;7.002;2023-03-01T10:49:59;5.40;99.90
5960;DHT22;3006;50.956;7.002;2023-03-01T10:52:33;5.40;99.90
5960;DHT22;3006;50.956;7.002;2023-03-01T10:55:04;5.30;99.70
5960;DHT22;3006;50.956;7.002;2023-03-01T10:57:44;5.30;99.50
5960;DHT22;3006;50.956;7.002;2023-03-01T11:00:21;5.40;99.60
5960;DHT22;3006;50.956;7.002;2023-03-01T11:03:01;5.50;99.50
5960;DHT22;3006;50.956;7.002;2023-03-01T11:05:32;5.60;99.20
5960;DHT22;3006;50.956;7.002;2023-03-01T11:08:03;5.70;98.90
5960;DHT22;3006;50.956;7.002;2023-03-01T11:10:33;5.60;98.70
5960;DHT22;3006;50.956;7.002;2023-03-01T11:13:13;5.70;98.70
5960;DHT22;3006;50.956;7.002;2023-03-01T11:15:42;5.60;98.40
5960;DHT22;3006;50.956;7.002;2023-03-01T11:18:21;5.60;98.50
5960;DHT22;3006;50.956;7.002;2023-03-01T11:21:09;5.60;98.60
5960;DHT22;3006;50.956;7.002;2023-03-01T11:23:39;5.70;98.20
5960;DHT22;3006;50.956;7.002;2023-03-01T11:26:09;5.70;98.50
5960;DHT22;3006;50.956;7.002;2023-03-01T11:28:40;5.80;98.10
5960;DHT22;3006;50.956;7.002;2023-03-01T11:31:11;5.90;98.20
5960;DHT22;3006;50.956;7.002;2023-03-01T11:33:44;5.80;97.90
5960;DHT22;3006;50.956;7.002;2023-03-01T11:36:24;5.90;98.00
5960;DHT22;3006;50.956;7.002;2023-03-01T11:38:55;5.80;97.80
5960;DHT22;3006;50.956;7.002;2023-03-01T11:41:26;5.90;98.30
5960;DHT22;3006;50.956;7.002;2023-03-01T11:44:00;6.00;98.60
5960;DHT22;3006;50.956;7.002;2023-03-01T11:46:40;6.10;99.10
5960;DHT22;3006;50.956;7.002;2023-03-01T11:52:26;6.10;98.20
5960;DHT22;3006;50.956;7.002;2023-03-01T11:55:17;6.10;98.80
5960;DHT22;3006;50.956;7.002;2023-03-01T12:00:59;6.10;98.70
5960;DHT22;3006;50.956;7.002;2023-03-01T12:03:33;6.10;99.10
5960;DHT22;3006;50.956;7.002;2023-03-01T12:06:28;6.10;98.30
5960;DHT22;3006;50.956;7.002;2023-03-01T12:09:12;6.10;98.00
5960;DHT22;3006;50.956;7.002;2023-03-01T12:12:02;6.20;98.60
5960;DHT22;3006;50.956;7.002;2023-03-01T12:14:51;6.20;98.60
5960;DHT22;3006;50.956;7.002;2023-03-01T12:17:44;6.30;98.30
5960;DHT22;3006;50.956;7.002;2023-03-01T12:20:21;6.40;99.00
5960;DHT22;3006;50.956;7.002;2023-03-01T12:23:12;6.50;98.80
5960;DHT22;3006;50.956;7.002;2023-03-01T12:25:53;6.50;98.00
5960;DHT22;3006;50.956;7.002;2023-03-01T12:28:41;6.60;97.50
5960;DHT22;3006;50.956;7.002;2023-03-01T12:34:31;6.80;96.80
5960;DHT22;3006;50.956;7.002;2023-03-01T12:37:18;6.90;96.50
5960;DHT22;3006;50.956;7.002;2023-03-01T12:39:59;7.00;97.10
5960;DHT22;3006;50.956;7.002;2023-03-01T12:42:37;7.20;97.40
5960;DHT22;3006;50.956;7.002;2023-03-01T12:48:24;7.40;95.60
5960;DHT22;3006;50.956;7.002;2023-03-01T12:50:59;7.40;94.60
5960;DHT22;3006;50.956;7.002;2023-03-01T12:53:31;7.50;94.90
5960;DHT22;3006;50.956;7.002;2023-03-01T12:56:01;7.60;94.50
5960;DHT22;3006;50.956;7.002;2023-03-01T12:58:33;7.70;94.00
5960;DHT22;3006;50.956;7.002;2023-03-01T13:01:23;7.70;93.70
5960;DHT22;3006;50.956;7.002;2023-03-01T13:04:11;7.80;93.60
5960;DHT22;3006;50.956;7.002;2023-03-01T13:06:44;8.00;93.30
5960;DHT22;3006;50.956;7.002;2023-03-01T13:09:22;8.20;92.50
5960;DHT22;3006;50.956;7.002;2023-03-01T13:11:51;8.40;92.10
5960;DHT22;3006;50.956;7.002;2023-03-01T13:14:45;8.50;92.10
5960;DHT22;3006;50.956;7.002;2023-03-01T13:17:31;8.80;91.30
5960;DHT22;3006;50.956;7.002;2023-03-01T13:20:00;8.90;88.10
5960;DHT22;3006;50.956;7.002;2023-03-01T13:22:31;8.80;88.60
5960;DHT22;3006;50.956;7.002;2023-03-01T13:25:16;8.90;88.80
5960;DHT22;3006;50.956;7.002;2023-03-01T13:27:46;8.90;89.50
5960;DHT22;3006;50.956;7.002;2023-03-01T13:30:40;8.90;88.80
5960;DHT22;3006;50.956;7.002;2023-03-01T13:33:43;9.00;89.70
5960;DHT22;3006;50.956;7.002;2023-03-01T13:36:46;9.00;87.90
5960;DHT22;3006;50.956;7.002;2023-03-01T13:39:29;9.00;87.50
5960;DHT22;3006;50.956;7.002;2023-03-01T13:42:00;9.20;87.60
5960;DHT22;3006;50.956;7.002;2023-03-01T13:44:32;9.20;86.10
5960;DHT22;3006;50.956;7.002;2023-03-01T13:47:07;9.40;86.50
5960;DHT22;3006;50.956;7.002;2023-03-01T13:49:44;9.50;85.80
5960;DHT22;3006;50.956;7.002;2023-03-01T13:52:37;9.60;86.70
5960;DHT22;3006;50.956;7.002;2023-03-01T13:55:16;9.60;84.50
5960;DHT22;3006;50.956;7.002;2023-03-01T13:57:47;9.90;83.90
5960;DHT22;3006;50.956;7.002;2023-03-01T14:00:33;10.20;82.60
5960;DHT22;3006;50.956;7.002;2023-03-01T14:03:12;10.60;80.60
5960;DHT22;3006;50.956;7.002;2023-03-01T14:05:44;11.00;77.70
5960;DHT22;3006;50.956;7.002;2023-03-01T14:08:21;11.60;76.80
5960;DHT22;3006;50.956;7.002;2023-03-01T14:11:09;12.20;73.80
5960;DHT22;3006;50.956;7.002;2023-03-01T14:16:44;13.90;67.30
5960;DHT22;3006;50.956;7.002;2023-03-01T14:19:18;14.70;62.40
5960;DHT22;3006;50.956;7.002;2023-03-01T14:22:02;15.20;60.30
5960;DHT22;3006;50.956;7.002;2023-03-01T14:24:35;16.10;57.10
5960;DHT22;3006;50.956;7.002;2023-03-01T14:27:10;16.50;54.10
5960;DHT22;3006;50.956;7.002;2023-03-01T14:29:39;16.60;54.00
5960;DHT22;3006;50.956;7.002;2023-03-01T14:32:15;16.20;54.30
5960;DHT22;3006;50.956;7.002;2023-03-01T14:34:48;15.90;55.00
5960;DHT22;3006;50.956;7.002;2023-03-01T14:37:20;15.30;55.80
5960;DHT22;3006;50.956;7.002;2023-03-01T14:39:49;15.10;56.90
5960;DHT22;3006;50.956;7.002;2023-03-01T14:42:18;15.20;57.90
5960;DHT22;3006;50.956;7.002;2023-03-01T14:44:48;15.70;57.60
5960;DHT22;3006;50.956;7.002;2023-03-01T14:47:24;15.60;57.20
5960;DHT22;3006;50.956;7.002;2023-03-01T14:49:58;14.80;58.70
5960;DHT22;3006;50.956;7.002;2023-03-01T14:52:33;13.30;61.50
5960;DHT22;3006;50.956;7.002;2023-03-01T14:55:05;11.60;65.80
5960;DHT22;3006;50.956;7.002;2023-03-01T14:57:33;10.50;69.90
5960;DHT22;3006;50.956;7.002;2023-03-01T15:00:07;10.00;72.50
5960;DHT22;3006;50.956;7.002;2023-03-01T15:02:37;9.70;74.40
5960;DHT22;3006;50.956;7.002;2023-03-01T15:05:08;9.50;76.60
5960;DHT22;3006;50.956;7.002;2023-03-01T15:07:39;9.50;77.50
5960;DHT22;3006;50.956;7.002;2023-03-01T15:10:17;9.40;79.10
5960;DHT22;3006;50.956;7.002;2023-03-01T15:12:47;9.20;80.50
5960;DHT22;3006;50.956;7.002;2023-03-01T15:15:34;9.10;82.00
5960;DHT22;3006;50.956;7.002;2023-03-01T15:18:05;9.10;81.50
5960;DHT22;3006;50.956;7.002;2023-03-01T15:20:35;9.00;82.30
5960;DHT22;3006;50.956;7.002;2023-03-01T15:23:04;8.90;83.20
5960;DHT22;3006;50.956;7.002;2023-03-01T15:25:33;8.80;83.50
5960;DHT22;3006;50.956;7.002;2023-03-01T15:28:03;8.70;84.00
5960;DHT22;3006;50.956;7.002;2023-03-01T15:30:33;8.70;85.50
5960;DHT22;3006;50.956;7.002;2023-03-01T15:33:27;8.70;85.00
5960;DHT22;3006;50.956;7.002;2023-03-01T15:35:58;8.60;85.30
5960;DHT22;3006;50.956;7.002;2023-03-01T15:38:30;8.60;85.60
5960;DHT22;3006;50.956;7.002;2023-03-01T15:41:01;8.60;86.10
5960;DHT22;3006;50.956;7.002;2023-03-01T15:43:44;8.60;86.10
5960;DHT22;3006;50.956;7.002;2023-03-01T15:46:17;8.50;86.00
5960;DHT22;3006;50.956;7.002;2023-03-01T15:48:47;8.50;86.70
5960;DHT22;3006;50.956;7.002;2023-03-01T15:51:22;8.40;86.30
5960;DHT22;3006;50.956;7.002;2023-03-01T15:53:52;8.40;87.20
5960;DHT22;3006;50.956;7.002;2023-03-01T15:56:20;8.50;87.40
5960;DHT22;3006;50.956;7.002;2023-03-01T15:58:48;8.40;87.30
5960;DHT22;3006;50.956;7.002;2023-03-01T16:01:17;8.40;88.20
5960;DHT22;3006;50.956;7.002;2023-03-01T16:03:45;8.30;87.40
5960;DHT22;3006;50.956;7.002;2023-03-01T16:06:14;8.30;87.60
5960;DHT22;3006;50.956;7.002;2023-03-01T16:08:43;8.20;87.40
5960;DHT22;3006;50.956;7.002;2023-03-01T16:11:15;8.20;87.70
5960;DHT22;3006;50.956;7.002;2023-03-01T16:13:44;8.30;88.00
5960;DHT22;3006;50.956;7.002;2023-03-01T16:16:14;8.20;87.80
5960;DHT22;3006;50.956;7.002;2023-03-01T16:18:46;8.10;87.80
5960;DHT22;3006;50.956;7.002;2023-03-01T16:21:18;8.20;88.40
5960;DHT22;3006;50.956;7.002;2023-03-01T16:23:48;8.10;89.40
5960;DHT22;3006;50.956;7.002;2023-03-01T16:26:18;8.10;89.20
5960;DHT22;3006;50.956;7.002;2023-03-01T16:28:47;8.10;89.40
5960;DHT22;3006;50.956;7.002;2023-03-01T16:31:18;8.00;89.30
5960;DHT22;3006;50.956;7.002;2023-03-01T16:33:48;8.00;89.30
5960;DHT22;3006;50.956;7.002;2023-03-01T16:36:20;7.90;89.70
5960;DHT22;3006;50.956;7.002;2023-03-01T16:38:52;7.90;89.90
5960;DHT22;3006;50.956;7.002;2023-03-01T16:41:23;7.90;90.00
5960;DHT22;3006;50.956;7.002;2023-03-01T16:43:51;7.80;90.20
5960;DHT22;3006;50.956;7.002;2023-03-01T16:46:21;7.80;90.20
5960;DHT22;3006;50.956;7.002;2023-03-01T16:48:50;7.80;90.20
5960;DHT22;3006;50.956;7.002;2023-03-01T16:51:19;7.80;90.00
5960;DHT22;3006;50.956;7.002;2023-03-01T16:53:47;7.70;90.00
5960;DHT22;3006;50.956;7.002;2023-03-01T16:56:18;7.70;90.10
5960;DHT22;3006;50.956;7.002;2023-03-01T16:58:47;7.60;90.00
5960;DHT22;3006;50.956;7.002;2023-03-01T17:01:16;7.60;90.20
5960;DHT22;3006;50.956;7.002;2023-03-01T17:03:46;7.60;90.50
5960;DHT22;3006;50.956;7.002;2023-03-01T17:06:17;7.50;90.30